createdAt,value
2017-11-21T00:09:33.063Z,0
2017-11-21T00:19:33.076Z,0
2017-11-21T00:29:33.234Z,0
2017-11-21T00:39:33.058Z,0
2017-11-21T00:49:33.112Z,0
2017-11-21T00:59:33.048Z,0
2017-11-21T01:09:33.152Z,0
2017-11-21T01:19:33.126Z,0
2017-11-21T01:29:33.140Z,0
2017-11-21T01:39:33.115Z,0
2017-11-21T01:49:33.195Z,0
2017-11-21T01:59:34.229Z,0
2017-11-21T02:09:33.265Z,0
2017-11-21T02:19:33.306Z,0
2017-11-21T02:29:33.133Z,0
2017-11-21T02:39:33.189Z,0
2017-11-21T02:49:33.261Z,0
2017-11-21T02:59:33.413Z,0
2017-11-21T03:09:33.192Z,0
2017-11-21T03:19:33.201Z,0
2017-11-21T03:29:33.199Z,0
2017-11-21T03:39:33.248Z,0
2017-11-21T03:49:33.239Z,0
2017-11-21T03:59:33.297Z,0
2017-11-21T04:09:33.227Z,0
2017-11-21T04:19:33.327Z,0
2017-11-21T04:29:33.272Z,0
2017-11-21T04:39:33.234Z,0
2017-11-21T04:49:33.267Z,0
2017-11-21T04:59:33.228Z,0
2017-11-21T05:09:33.307Z,0
2017-11-21T05:19:33.237Z,0
2017-11-21T05:29:33.318Z,0
2017-11-21T05:39:33.288Z,0
2017-11-21T05:49:33.394Z,0
2017-11-21T05:59:33.285Z,0
2017-11-21T06:09:33.388Z,0
2017-11-21T06:19:33.342Z,0
2017-11-21T06:29:33.414Z,0
2017-11-21T06:39:33.394Z,4
2017-11-21T06:49:33.444Z,28
2017-11-21T06:59:33.420Z,48
2017-11-21T07:09:33.469Z,76
2017-11-21T07:19:33.429Z,188
2017-11-21T07:29:33.485Z,256
2017-11-21T07:39:33.431Z,200
2017-11-21T07:49:33.382Z,612
2017-11-21T07:59:33.465Z,708
2017-11-21T08:09:33.436Z,520
2017-11-21T08:19:33.512Z,1188
2017-11-21T08:29:33.450Z,1540
2017-11-21T08:39:33.536Z,1156
2017-11-21T08:49:33.521Z,1140
2017-11-21T08:59:33.654Z,1436
2017-11-21T09:09:33.557Z,1948
2017-11-21T09:19:33.498Z,2076
2017-11-21T09:29:33.698Z,1624
2017-11-21T09:39:33.516Z,2340
2017-11-21T09:49:33.507Z,3404
2017-11-21T09:59:33.548Z,2192
2017-11-21T10:09:33.526Z,2912
2017-11-21T10:19:33.548Z,2376
2017-11-21T10:29:33.517Z,2620
2017-11-21T10:39:33.583Z,2736
2017-11-21T10:49:33.956Z,4300
2017-11-21T10:59:33.581Z,3488
2017-11-21T11:09:33.712Z,2488
2017-11-21T11:19:33.686Z,2496
2017-11-21T11:29:33.603Z,3456
2017-11-21T11:39:33.623Z,2968
2017-11-21T11:49:33.613Z,3372
2017-11-21T11:59:33.641Z,2888
2017-11-21T12:09:33.671Z,2832
2017-11-21T12:19:33.693Z,2292
2017-11-21T12:29:33.689Z,2364
2017-11-21T12:39:33.661Z,2188
2017-11-21T12:49:33.749Z,3316
2017-11-21T12:59:33.779Z,2080
2017-11-21T13:09:33.701Z,1644
2017-11-21T13:19:33.721Z,1048
2017-11-21T13:29:33.759Z,1520
2017-11-21T13:39:33.783Z,1464
2017-11-21T13:49:33.730Z,1152
2017-11-21T13:59:33.772Z,1036
2017-11-21T14:09:33.756Z,588
2017-11-21T14:19:33.853Z,796
2017-11-21T14:29:33.836Z,708
2017-11-21T14:39:33.967Z,280
2017-11-21T14:49:33.962Z,348
2017-11-21T14:59:33.913Z,200
2017-11-21T15:09:33.890Z,152
2017-11-21T15:19:33.823Z,72
2017-11-21T15:29:34.032Z,40
2017-11-21T15:39:33.894Z,20
2017-11-21T15:49:34.965Z,8
2017-11-21T15:59:33.913Z,8
2017-11-21T16:09:33.957Z,4
2017-11-21T16:19:33.973Z,4
2017-11-21T16:29:34.250Z,0
2017-11-21T16:39:33.987Z,0
2017-11-21T16:49:33.994Z,0
2017-11-21T16:59:33.924Z,0
2017-11-21T17:09:33.926Z,0
2017-11-21T17:19:34.011Z,0
2017-11-21T17:29:33.975Z,0
2017-11-21T17:39:33.955Z,0
2017-11-21T17:49:34.013Z,0
2017-11-21T17:59:34.046Z,0
2017-11-21T18:09:33.976Z,0
2017-11-21T18:19:34.012Z,4
2017-11-21T18:29:34.061Z,0
2017-11-21T18:39:33.994Z,0
2017-11-21T18:49:34.266Z,4
2017-11-21T18:59:34.042Z,4
2017-11-21T19:09:34.169Z,0
2017-11-21T19:19:34.121Z,0
2017-11-21T19:29:34.219Z,0
2017-11-21T19:39:34.447Z,0
2017-11-21T19:49:34.151Z,0
2017-11-21T19:59:34.410Z,0
2017-11-21T20:09:34.667Z,0
2017-11-21T20:19:34.595Z,0
2017-11-21T20:29:34.223Z,4
2017-11-21T20:39:34.409Z,0
2017-11-21T20:49:34.169Z,0
2017-11-21T20:59:34.933Z,0
2017-11-21T21:09:34.872Z,0
2017-11-21T21:19:34.575Z,0
2017-11-21T21:29:34.474Z,0
2017-11-21T21:39:34.568Z,0
2017-11-21T21:49:34.285Z,0
2017-11-21T21:59:34.275Z,0
2017-11-21T22:09:34.255Z,4
2017-11-21T22:19:34.332Z,0
2017-11-21T22:29:35.475Z,0
2017-11-21T22:39:34.230Z,0
2017-11-21T22:49:34.295Z,0
2017-11-21T22:59:34.269Z,0
2017-11-21T23:09:34.341Z,0
2017-11-21T23:19:34.263Z,0
2017-11-21T23:29:34.420Z,0
2017-11-21T23:39:34.264Z,0
2017-11-21T23:49:34.452Z,0
2017-11-21T23:59:34.386Z,0
